Time;durP1;ratioP1;P1;durP2;ratioP2;P2;SDS_P1;SDS_P2;PMS_P1;PMS_P2;Temp;Humidity;BMP_temperature;BMP_pressure;BME280_temperature;BME280_humidity;BME280_pressure;Samples;Min_cycle;Max_cycle;Signal;HPM_P1;HPM_P2
2023/05/22 00:04:12;;;;;;;9.43;7.93;;;;;;;12.48;100.00;96559.53;10575262;28;20194;-67
2023/05/22 00:09:12;;;;;;;9.00;7.50;;;;;;;12.30;100.00;96562.41;10591152;28;20225;-66
2023/05/22 00:14:12;;;;;;;11.25;8.77;;;;;;;12.08;100.00;96557.88;10619915;28;20246;-66
2023/05/22 00:19:15;;;;;;;12.25;9.10;;;;;;;11.95;100.00;96564.50;10619656;28;20265;-67
2023/05/22 00:24:15;;;;;;;10.27;8.93;;;;;;;11.90;100.00;96561.53;10619869;28;20215;-66
2023/05/22 00:29:16;;;;;;;13.02;8.48;;;;;;;11.98;100.00;96560.72;10619534;28;20704;-67
2023/05/22 00:34:16;;;;;;;10.82;8.65;;;;;;;11.97;100.00;96558.25;10601250;28;20654;-66
2023/05/22 00:39:17;;;;;;;12.23;8.60;;;;;;;11.62;100.00;96555.84;10604203;27;20333;-66
2023/05/22 00:44:17;;;;;;;11.75;9.77;;;;;;;11.64;100.00;96564.38;10627655;27;20718;-66
2023/05/22 00:49:19;;;;;;;12.18;8.60;;;;;;;11.59;100.00;96558.78;10627317;27;20714;-66
2023/05/22 00:54:20;;;;;;;13.10;9.15;;;;;;;11.49;100.00;96550.31;10609053;27;20181;-66
2023/05/22 00:59:20;;;;;;;12.20;8.73;;;;;;;11.46;100.00;96555.88;10591264;27;20300;-66
2023/05/22 01:04:21;;;;;;;10.70;7.85;;;;;;;11.27;100.00;96552.63;10608310;27;20185;-66
2023/05/22 01:09:22;;;;;;;11.82;7.43;;;;;;;11.15;100.00;96553.91;10626502;27;20213;-66
2023/05/22 01:14:35;;;;;;;10.40;8.02;;;;;;;11.17;100.00;96551.97;10626628;27;20181;-66
2023/05/22 01:20:05;;;;;;;10.73;7.90;;;;;;;11.07;100.00;96550.31;10607806;27;20193;-66
2023/05/22 01:25:27;;;;;;;18.00;9.48;;;;;;;10.85;100.00;96558.81;10626049;27;20192;-66
2023/05/22 01:31:07;;;;;;;8.90;7.95;;;;;;;10.83;100.00;96561.59;10625922;27;20207;-66
2023/05/22 01:36:07;;;;;;;11.90;7.97;;;;;;;10.81;100.00;96560.94;10590217;27;20193;-66
2023/05/22 01:41:08;;;;;;;11.55;8.80;;;;;;;10.76;100.00;96550.13;10590145;27;20208;-66
2023/05/22 01:46:08;;;;;;;9.45;8.38;;;;;;;10.70;100.00;96550.75;10624899;27;20789;-66
2023/05/22 01:51:39;;;;;;;12.50;9.27;;;;;;;11.03;100.00;96559.50;10606288;27;20296;-66
2023/05/22 01:57:01;;;;;;;12.48;8.57;;;;;;;11.41;100.00;96557.19;10606208;27;20188;-67
2023/05/22 02:02:05;;;;;;;10.70;7.88;;;;;;;11.84;100.00;96550.88;10589247;27;20240;-66
2023/05/22 02:07:07;;;;;;;12.02;7.72;;;;;;;12.29;100.00;96531.06;10588766;27;20209;-66
2023/05/22 02:12:08;;;;;;;11.00;7.10;;;;;;;12.57;100.00;96534.03;10588983;27;20235;-66
2023/05/22 02:17:08;;;;;;;8.75;6.95;;;;;;;12.66;100.00;96527.75;10605659;27;20292;-66
2023/05/22 02:22:12;;;;;;;9.20;7.07;;;;;;;12.38;100.00;96524.75;10605047;27;20694;-66
2023/05/22 02:27:13;;;;;;;9.93;7.40;;;;;;;12.10;100.00;96527.03;10623778;27;20221;-66
2023/05/22 02:32:13;;;;;;;10.50;7.50;;;;;;;11.81;100.00;96527.59;10604383;27;20212;-66
2023/05/22 02:37:15;;;;;;;8.93;7.68;;;;;;;11.65;100.00;96526.63;10623346;27;20719;-66
2023/05/22 02:42:15;;;;;;;11.15;7.80;;;;;;;11.45;100.00;96522.75;10604283;27;20269;-66
2023/05/22 02:47:17;;;;;;;14.95;9.32;;;;;;;11.19;100.00;96529.84;10596124;27;20581;-66
2023/05/22 02:52:18;;;;;;;10.07;8.07;;;;;;;10.98;100.00;96530.34;10561824;28;20205;-66
2023/05/22 02:57:19;;;;;;;9.88;8.15;;;;;;;10.81;100.00;96528.66;10561413;28;20202;-66
2023/05/22 03:02:19;;;;;;;10.43;7.82;;;;;;;10.74;100.00;96528.50;10583923;27;20327;-66
2023/05/22 03:07:21;;;;;;;8.98;7.93;;;;;;;10.53;100.00;96532.41;10621494;27;20691;-67
2023/05/22 03:12:21;;;;;;;11.18;8.57;;;;;;;10.40;100.00;96532.06;10621604;27;20216;-66
2023/05/22 03:17:22;;;;;;;12.60;9.77;;;;;;;10.50;100.00;96542.38;10602885;27;20188;-66
2023/05/22 03:22:22;;;;;;;12.85;8.52;;;;;;;10.57;100.00;96535.53;10602062;27;20208;-66
2023/05/22 03:27:22;;;;;;;9.90;8.88;;;;;;;10.29;100.00;96537.53;10602242;27;20304;-66
2023/05/22 03:32:23;;;;;;;12.88;9.80;;;;;;;10.25;100.00;96539.66;10601670;27;20207;-66
2023/05/22 03:37:23;;;;;;;15.40;9.55;;;;;;;10.29;100.00;96543.59;10602182;27;20272;-66
2023/05/22 03:42:24;;;;;;;12.13;9.30;;;;;;;10.44;100.00;96540.41;10602171;27;20209;-66
2023/05/22 03:47:25;;;;;;;13.80;9.82;;;;;;;10.46;100.00;96536.66;10620222;27;20220;-66
2023/05/22 03:52:25;;;;;;;12.35;9.27;;;;;;;10.64;100.00;96551.41;10601781;27;20223;-66
2023/05/22 03:57:26;;;;;;;14.07;9.88;;;;;;;10.84;100.00;96541.44;10620179;27;20264;-67
2023/05/22 04:02:28;;;;;;;14.98;9.40;;;;;;;11.10;100.00;96536.06;10601283;28;20240;-67
2023/05/22 04:07:29;;;;;;;14.15;10.85;;;;;;;11.15;100.00;96532.94;10601520;28;20585;-66
2023/05/22 04:12:29;;;;;;;14.30;9.90;;;;;;;11.33;100.00;96520.50;10620170;27;20270;-66
2023/05/22 04:17:31;;;;;;;14.10;9.95;;;;;;;11.71;100.00;96512.84;10610438;27;20205;-66
2023/05/22 04:22:32;;;;;;;14.82;9.85;;;;;;;12.03;100.00;96507.69;10626771;27;20569;-66
2023/05/22 04:27:33;;;;;;;13.27;8.60;;;;;;;12.49;100.00;96498.09;10628232;27;20205;-66
2023/05/22 04:32:35;;;;;;;14.77;9.18;;;;;;;12.98;100.00;96493.47;10629096;27;20208;-66
2023/05/22 04:37:35;;;;;;;15.90;8.13;;;;;;;13.27;100.00;96487.47;10628256;27;20651;-66
2023/05/22 04:42:37;;;;;;;11.90;8.30;;;;;;;13.20;100.00;96486.56;10627788;27;20296;-66
2023/05/22 04:47:40;;;;;;;10.23;8.20;;;;;;;13.57;100.00;96495.44;10627094;27;20249;-66
2023/05/22 04:52:41;;;;;;;10.85;8.10;;;;;;;13.79;100.00;96491.09;10627299;27;20238;-66
2023/05/22 04:57:44;;;;;;;12.82;8.05;;;;;;;14.14;100.00;96480.78;10626866;27;20186;-66
2023/05/22 05:02:45;;;;;;;9.63;7.47;;;;;;;14.56;100.00;96475.75;10608703;27;20238;-67
2023/05/22 05:07:48;;;;;;;9.52;7.00;;;;;;;14.89;100.00;96481.38;10608259;27;20346;-66
2023/05/22 05:12:48;;;;;;;10.85;6.80;;;;;;;15.31;100.00;96479.72;10608207;27;20663;-66
2023/05/22 05:17:48;;;;;;;13.32;6.85;;;;;;;15.46;100.00;96471.66;10607812;27;20222;-66
2023/05/22 05:22:49;;;;;;;8.93;6.10;;;;;;;15.66;100.00;96476.25;10626079;27;20193;-67
2023/05/22 05:27:51;;;;;;;10.18;6.20;;;;;;;15.88;100.00;96463.84;10600082;27;20209;-66
2023/05/22 05:32:53;;;;;;;8.45;6.20;;;;;;;16.40;100.00;96474.78;10593743;27;20189;-67
2023/05/22 05:38:03;;;;;;;7.85;5.65;;;;;;;16.77;100.00;96476.09;10625540;27;20213;-67
2023/05/22 05:43:06;;;;;;;9.27;6.80;;;;;;;16.99;100.00;96481.22;10607403;27;20193;-66
2023/05/22 05:48:07;;;;;;;6.82;6.00;;;;;;;17.37;100.00;96477.16;10605982;27;20221;-67
2023/05/22 05:53:11;;;;;;;12.27;5.78;;;;;;;17.75;99.17;96477.28;10606429;27;20558;-67
2023/05/22 06:03:37;;;;;;;11.00;5.22;;;;;;;18.87;85.32;96434.56;10383883;28;20227;-66
2023/05/22 06:08:44;;;;;;;10.25;4.55;;;;;;;19.11;82.78;96421.53;10434539;28;20334;-66
2023/05/22 06:13:45;;;;;;;7.28;4.18;;;;;;;20.23;73.46;96359.34;10429694;28;20586;-66
2023/05/22 06:18:45;;;;;;;6.43;3.67;;;;;;;20.82;64.86;96300.09;10424140;28;20199;-65
2023/05/22 06:23:47;;;;;;;8.85;3.63;;;;;;;21.42;61.14;96261.66;10413106;28;20267;-65
2023/05/22 06:28:47;;;;;;;8.70;3.50;;;;;;;21.79;56.52;96212.53;10414472;28;20229;-66
2023/05/22 06:33:48;;;;;;;4.57;2.80;;;;;;;22.31;55.86;96230.22;10412996;28;20195;-66
2023/05/22 06:38:48;;;;;;;8.60;3.22;;;;;;;22.03;56.35;96238.00;10411788;28;20227;-66
2023/05/22 06:44:12;;;;;;;4.40;3.10;;;;;;;21.38;55.93;96226.69;10413624;28;20200;-67
2023/05/22 06:49:13;;;;;;;3.65;3.08;;;;;;;22.09;58.28;96306.41;10412321;28;20641;-66
2023/05/22 06:54:20;;;;;;;10.70;2.97;;;;;;;22.34;54.77;96246.53;10412385;28;20670;-67
2023/05/22 06:59:24;;;;;;;5.97;3.30;;;;;;;22.46;56.11;96283.81;10412444;28;20236;-66
2023/05/22 07:04:47;;;;;;;6.00;2.83;;;;;;;22.29;54.95;96254.44;10406601;28;20205;-66
2023/05/22 07:09:53;;;;;;;7.30;3.75;;;;;;;22.83;54.24;96253.94;10404729;28;20649;-67
2023/05/22 07:14:54;;;;;;;8.73;3.40;;;;;;;22.27;55.03;96253.88;10443783;28;20215;-65
2023/05/22 07:19:56;;;;;;;8.10;3.22;;;;;;;22.88;55.76;96285.25;10425893;28;20212;-66
2023/05/22 07:24:58;;;;;;;6.63;3.42;;;;;;;23.27;53.71;96259.34;10424449;28;20254;-65
2023/05/22 07:30:04;;;;;;;6.25;3.78;;;;;;;24.62;51.87;96261.50;10404045;28;20213;-65
2023/05/22 07:35:06;;;;;;;6.13;2.85;;;;;;;24.45;51.19;96246.34;10405247;28;20221;-65
2023/05/22 07:40:11;;;;;;;8.07;3.35;;;;;;;24.09;51.19;96243.41;10408316;28;20213;-63
2023/05/22 07:45:12;;;;;;;4.75;3.17;;;;;;;24.51;51.00;96249.88;10409163;28;20193;-64
2023/05/22 07:50:12;;;;;;;7.22;3.00;;;;;;;24.75;48.19;96200.22;10406960;28;20212;-64
2023/05/22 07:55:16;;;;;;;5.93;3.42;;;;;;;25.14;48.99;96233.13;10391875;28;20189;-65
2023/05/22 08:00:17;;;;;;;12.30;3.40;;;;;;;25.84;47.55;96219.41;10441122;28;20346;-66
2023/05/22 08:05:18;;;;;;;6.85;3.70;;;;;;;25.02;47.90;96195.81;10450567;28;20192;-65
2023/05/22 08:10:18;;;;;;;6.03;3.30;;;;;;;25.36;46.67;96176.63;10448328;28;20226;-66
2023/05/22 08:15:19;;;;;;;6.32;3.60;;;;;;;25.76;44.54;96142.94;10445624;28;20459;-66
2023/05/22 08:20:19;;;;;;;7.25;2.75;;;;;;;25.33;46.15;96169.94;10427633;28;20763;-65
2023/05/22 08:25:20;;;;;;;4.00;2.92;;;;;;;25.62;46.28;96180.19;10420556;28;20204;-65
2023/05/22 08:30:20;;;;;;;6.40;3.17;;;;;;;26.76;44.83;96192.53;10412331;28;20216;-66
2023/05/22 08:35:21;;;;;;;17.73;4.65;;;;;;;26.43;43.40;96140.19;10455112;28;20613;-66
2023/05/22 08:40:22;;;;;;;4.28;2.92;;;;;;;26.51;43.28;96134.28;10448711;28;20208;-66
2023/05/22 08:45:24;;;;;;;6.57;2.92;;;;;;;27.39;42.54;96159.75;10432048;28;20290;-66
2023/05/22 08:50:25;;;;;;;8.10;2.72;;;;;;;28.15;40.11;96131.75;10449484;28;20203;-65
2023/05/22 08:55:26;;;;;;;5.85;2.92;;;;;;;26.33;39.97;96042.47;10432368;28;20188;-66
2023/05/22 09:00:28;;;;;;;10.32;4.68;;;;;;;26.73;45.02;96184.22;10434796;28;20247;-66
2023/05/22 09:05:29;;;;;;;10.55;4.70;;;;;;;26.64;43.70;96149.81;10457441;28;20674;-65
2023/05/22 09:10:29;;;;;;;6.80;3.70;;;;;;;27.03;44.25;96170.69;10459468;28;20374;-66
2023/05/22 09:15:31;;;;;;;7.20;4.00;;;;;;;27.99;44.24;96209.19;10455661;28;20192;-64
2023/05/22 09:20:37;;;;;;;6.40;3.38;;;;;;;26.73;48.10;96248.72;10456905;28;20559;-65
2023/05/22 09:25:37;;;;;;;8.25;3.92;;;;;;;26.47;49.32;96251.41;10456627;28;20312;-66
2023/05/22 09:30:37;;;;;;;7.47;3.63;;;;;;;25.82;51.74;96276.03;10456225;28;20230;-65
2023/05/22 09:35:38;;;;;;;6.03;3.58;;;;;;;26.20;49.07;96239.03;10456414;28;20869;-66
2023/05/22 09:40:39;;;;;;;9.15;3.50;;;;;;;25.64;51.09;96269.28;10455983;28;20235;-66
2023/05/22 09:45:39;;;;;;;7.55;4.10;;;;;;;26.21;49.91;96264.81;10455034;28;20796;-66
2023/05/22 09:50:40;;;;;;;8.55;3.60;;;;;;;26.21;50.97;96302.41;10455743;28;20302;-66
2023/05/22 09:55:42;;;;;;;13.32;3.85;;;;;;;26.36;48.74;96249.81;10455456;28;20188;-66
2023/05/22 10:00:43;;;;;;;4.85;3.47;;;;;;;27.42;46.31;96224.88;10413267;28;20227;-67
2023/05/22 10:05:48;;;;;;;15.85;3.28;;;;;;;27.88;43.21;96173.44;10417546;28;20285;-66
2023/05/22 10:10:51;;;;;;;3.88;3.33;;;;;;;29.27;41.05;96158.63;10433177;28;20245;-66
2023/05/22 10:15:52;;;;;;;6.25;3.15;;;;;;;28.04;43.44;96164.19;10403954;28;20662;-66
2023/05/22 10:20:52;;;;;;;4.40;3.40;;;;;;;30.22;39.94;96162.03;10454546;28;20219;-66
2023/05/22 10:25:53;;;;;;;3.05;2.75;;;;;;;29.74;39.84;96132.56;10454587;28;20211;-67
2023/05/22 10:31:17;;;;;;;6.03;2.95;;;;;;;30.33;36.58;96075.41;10436128;28;20215;-66
2023/05/22 10:36:53;;;;;;;3.10;2.75;;;;;;;29.44;36.71;96042.06;10454209;28;20673;-67
2023/05/22 10:41:54;;;;;;;5.03;3.30;;;;;;;29.85;34.19;95995.53;10436184;28;20284;-66
2023/05/22 10:46:54;;;;;;;4.30;3.00;;;;;;;29.35;37.61;96077.81;10435767;28;20226;-67
2023/05/22 10:51:55;;;;;;;3.93;2.87;;;;;;;29.13;36.99;96037.13;10452054;28;20300;-66
2023/05/22 10:57:15;;;;;;;5.90;3.13;;;;;;;29.81;37.94;96094.41;10453620;28;20442;-67
2023/05/22 11:02:19;;;;;;;5.45;2.95;;;;;;;30.35;35.78;96049.69;10439331;28;20875;-67
2023/05/22 11:07:20;;;;;;;6.15;3.72;;;;;;;30.00;40.32;96156.47;10475415;28;20229;-67
2023/05/22 11:12:27;;;;;;;6.22;3.25;;;;;;;30.62;37.81;96109.47;10454510;28;20232;-67
2023/05/22 11:17:29;;;;;;;6.28;3.50;;;;;;;31.78;37.00;96126.22;10416574;28;20191;-68
2023/05/22 11:22:31;;;;;;;10.70;3.30;;;;;;;30.26;38.36;96080.38;10433479;28;20208;-68
2023/05/22 11:27:32;;;;;;;8.27;3.42;;;;;;;30.98;37.79;96108.75;10445816;28;20247;-68
2023/05/22 11:32:36;;;;;;;7.30;3.22;;;;;;;30.69;39.28;96110.69;10439929;28;20211;-68
2023/05/22 11:37:38;;;;;;;4.57;3.17;;;;;;;31.19;36.49;96061.22;10435380;28;20671;-68
2023/05/22 11:42:38;;;;;;;5.40;3.10;;;;;;;29.43;38.76;96060.16;10447426;28;20222;-69
2023/05/22 11:47:39;;;;;;;8.07;3.03;;;;;;;30.98;37.59;96095.25;10449837;28;20211;-68
2023/05/22 11:52:41;;;;;;;6.80;3.22;;;;;;;30.07;38.28;96067.75;10437789;28;20458;-67
2023/05/22 11:57:42;;;;;;;5.13;3.05;;;;;;;30.22;37.88;96061.28;10451170;28;20211;-68
2023/05/22 12:02:46;;;;;;;4.65;3.10;;;;;;;29.55;38.77;96053.50;10534212;22;20237;-64
2023/05/22 12:07:46;;;;;;;4.78;3.03;;;;;;;29.16;39.83;96075.09;10534223;28;20224;-65
2023/05/22 12:12:46;;;;;;;6.43;3.45;;;;;;;28.65;41.79;96097.31;10515863;28;20722;-65
2023/05/22 12:17:47;;;;;;;8.60;3.60;;;;;;;28.65;40.69;96067.69;10531758;28;20186;-64
2023/05/22 12:22:47;;;;;;;4.27;3.13;;;;;;;28.86;39.88;96053.94;10490567;28;20608;-67
2023/05/22 12:27:49;;;;;;;9.43;3.70;;;;;;;27.96;41.40;96062.47;10490754;28;20473;-66
2023/05/22 12:32:50;;;;;;;13.65;3.33;;;;;;;29.14;40.93;96096.19;10491592;28;20708;-67
2023/05/22 12:37:50;;;;;;;5.78;3.40;;;;;;;27.75;42.41;96076.09;10499135;28;20187;-66
2023/05/22 12:42:51;;;;;;;3.78;3.08;;;;;;;28.00;40.97;96055.44;10499861;28;20213;-66
2023/05/22 12:47:51;;;;;;;4.85;3.40;;;;;;;28.53;41.45;96075.34;10498678;28;20815;-66
2023/05/22 12:52:51;;;;;;;6.87;3.27;;;;;;;29.25;40.31;96079.84;10499468;28;20203;-66
2023/05/22 12:57:52;;;;;;;4.60;3.27;;;;;;;29.31;39.34;96049.00;10495377;28;20587;-66
2023/05/22 13:02:52;;;;;;;5.38;3.45;;;;;;;30.19;38.14;96041.06;10497606;28;20477;-65
2023/05/22 13:07:53;;;;;;;5.00;3.07;;;;;;;31.08;37.83;96065.25;10496079;28;20298;-65
2023/05/22 13:12:53;;;;;;;6.00;2.90;;;;;;;31.12;36.78;96050.03;10495301;28;20526;-65
2023/05/22 13:17:55;;;;;;;4.23;2.93;;;;;;;31.90;37.06;96067.94;10496815;28;20445;-66
2023/05/22 13:22:55;;;;;;;8.88;3.30;;;;;;;32.60;35.05;96052.81;10485477;28;20611;-66
2023/05/22 13:27:57;;;;;;;6.93;3.40;;;;;;;32.48;35.38;96033.63;10497134;28;20241;-65
2023/05/22 13:32:57;;;;;;;7.70;3.58;;;;;;;31.42;36.81;96037.66;10497587;28;20551;-66
2023/05/22 13:37:57;;;;;;;6.03;3.27;;;;;;;32.76;34.74;96031.50;10497561;28;20290;-66
2023/05/22 13:42:58;;;;;;;5.60;2.83;;;;;;;32.54;35.47;96026.94;10497407;28;20449;-66
2023/05/22 13:47:58;;;;;;;4.63;3.30;;;;;;;33.79;33.72;96031.03;10496400;28;20483;-66
2023/05/22 13:52:58;;;;;;;5.93;3.20;;;;;;;34.27;33.04;96002.75;10497191;28;20519;-65
2023/05/22 13:57:59;;;;;;;12.23;3.27;;;;;;;35.72;31.17;96004.22;10496232;28;20186;-66
2023/05/22 14:02:59;;;;;;;6.17;3.70;;;;;;;35.38;31.19;95983.59;10495582;28;20287;-66
2023/05/22 14:07:59;;;;;;;3.93;3.20;;;;;;;33.56;34.27;95984.25;10496383;28;20250;-66
2023/05/22 14:13:01;;;;;;;10.30;3.50;;;;;;;33.46;33.67;95973.72;10496122;28;20225;-66
2023/05/22 14:18:01;;;;;;;7.88;3.60;;;;;;;34.79;33.26;96007.09;10496424;28;20225;-66
2023/05/22 14:23:01;;;;;;;12.23;3.60;;;;;;;33.79;34.46;95986.78;10495397;28;20318;-66
2023/05/22 14:28:02;;;;;;;6.67;3.27;;;;;;;33.73;34.35;95988.84;10495999;28;20982;-66
2023/05/22 14:33:02;;;;;;;7.88;3.40;;;;;;;33.64;34.71;95996.19;10493903;28;20704;-66
2023/05/22 14:38:03;;;;;;;11.25;3.78;;;;;;;33.61;33.76;95970.47;10495914;28;20211;-67
2023/05/22 14:43:03;;;;;;;5.40;3.28;;;;;;;34.29;34.43;96010.59;10495746;28;20225;-66
2023/05/22 14:48:03;;;;;;;11.90;4.00;;;;;;;34.05;34.36;95992.09;10494783;28;20727;-66
2023/05/22 14:53:04;;;;;;;10.63;3.37;;;;;;;34.03;34.10;95983.47;10494830;28;20789;-66
2023/05/22 14:58:04;;;;;;;6.93;3.53;;;;;;;35.04;31.68;95957.44;10493487;28;20807;-66
2023/05/22 15:03:04;;;;;;;7.10;3.20;;;;;;;34.81;32.14;95944.16;10494371;28;20609;-67
2023/05/22 15:08:05;;;;;;;5.53;3.60;;;;;;;33.86;33.66;95943.56;10492679;28;20684;-66
2023/05/22 15:13:05;;;;;;;5.82;3.63;;;;;;;33.20;35.00;95948.22;10495960;28;20887;-66
2023/05/22 15:18:06;;;;;;;6.13;3.57;;;;;;;33.65;34.01;95954.34;10493921;28;20218;-66
2023/05/22 15:23:06;;;;;;;4.53;3.03;;;;;;;33.40;33.95;95926.91;10493825;28;20449;-66
2023/05/22 15:28:06;;;;;;;10.97;3.40;;;;;;;33.27;33.75;95923.28;10494032;28;20223;-67
2023/05/22 15:33:07;;;;;;;6.47;3.43;;;;;;;33.19;34.96;95943.91;10490949;28;20475;-67
2023/05/22 15:38:11;;;;;;;7.00;3.83;;;;;;;33.67;33.75;95939.28;10511324;28;20521;-67
2023/05/22 15:43:11;;;;;;;5.95;3.17;;;;;;;33.08;34.08;95915.47;10494184;28;20238;-67
2023/05/22 15:48:11;;;;;;;6.72;3.08;;;;;;;31.85;36.09;95916.41;10493989;28;20229;-66
2023/05/22 15:53:12;;;;;;;6.70;3.70;;;;;;;32.12;34.82;95899.13;10494036;28;20284;-66
2023/05/22 15:58:12;;;;;;;7.83;3.30;;;;;;;32.32;34.51;95897.72;10494141;28;20469;-64
2023/05/22 16:03:13;;;;;;;4.40;3.33;;;;;;;30.51;38.10;95896.13;10495386;28;20477;-67
2023/05/22 16:08:14;;;;;;;4.53;3.00;;;;;;;29.87;39.42;95913.09;10496795;28;20485;-65
2023/05/22 16:13:15;;;;;;;8.63;3.22;;;;;;;27.91;41.73;95895.59;10507186;28;20305;-66
2023/05/22 16:18:15;;;;;;;9.25;3.38;;;;;;;27.50;43.20;95939.09;10507085;28;20252;-66
2023/05/22 16:23:16;;;;;;;11.73;3.73;;;;;;;26.87;44.85;95964.84;10506983;28;20210;-65
2023/05/22 16:28:16;;;;;;;5.13;2.50;;;;;;;26.80;44.84;95975.09;10486240;28;20546;-65
2023/05/22 16:33:16;;;;;;;8.83;3.90;;;;;;;26.16;46.36;95991.78;10476071;28;20496;-65
2023/05/22 16:38:17;;;;;;;6.47;3.50;;;;;;;25.68;47.43;95999.41;10502347;28;20449;-65
2023/05/22 16:43:17;;;;;;;4.75;3.42;;;;;;;25.55;46.82;95983.84;10505431;28;20494;-65
2023/05/22 16:48:18;;;;;;;8.63;3.43;;;;;;;24.81;48.60;96012.72;10495249;28;20275;-65
2023/05/22 16:53:18;;;;;;;5.15;3.28;;;;;;;24.67;49.98;96034.66;10506582;28;20456;-65
2023/05/22 16:58:18;;;;;;;9.80;3.35;;;;;;;23.90;51.81;96047.63;10506875;28;20266;-65
2023/05/22 17:03:19;;;;;;;5.68;3.50;;;;;;;23.80;52.43;96064.41;10506036;28;20246;-65
2023/05/22 17:08:19;;;;;;;9.00;3.80;;;;;;;23.15;53.55;96067.09;10506683;28;20214;-65
2023/05/22 17:13:20;;;;;;;10.18;3.80;;;;;;;23.04;53.59;96062.66;10504866;28;20238;-65
2023/05/22 17:18:20;;;;;;;7.28;3.70;;;;;;;23.05;52.96;96060.81;10505359;28;20199;-65
2023/05/22 17:23:20;;;;;;;3.67;2.92;;;;;;;22.56;54.12;96057.06;10499501;28;20211;-65
2023/05/22 17:28:21;;;;;;;5.63;3.75;;;;;;;22.47;54.08;96049.75;10499284;28;20253;-65
2023/05/22 17:33:25;;;;;;;6.90;3.90;;;;;;;22.42;54.98;96067.31;10499743;28;20222;-65
2023/05/22 17:38:25;;;;;;;7.15;3.85;;;;;;;22.05;55.00;96062.53;10499203;28;20183;-65
2023/05/22 17:43:25;;;;;;;8.32;3.90;;;;;;;21.96;56.02;96084.53;10499794;28;20214;-65
2023/05/22 17:48:26;;;;;;;9.48;3.40;;;;;;;21.95;56.25;96090.94;10502947;28;20222;-64
2023/05/22 17:53:30;;;;;;;4.82;3.95;;;;;;;21.62;56.95;96098.66;10498535;28;20211;-65
2023/05/22 17:58:31;;;;;;;9.00;4.50;;;;;;;21.48;57.57;96106.13;10498673;28;20187;-64
2023/05/22 18:03:32;;;;;;;10.00;5.78;;;;;;;21.23;58.69;96135.81;10540998;22;20231;-65
2023/05/22 18:08:32;;;;;;;8.80;6.50;;;;;;;21.32;58.78;96121.06;10539778;28;20214;-63
2023/05/22 18:13:33;;;;;;;10.95;4.72;;;;;;;21.06;59.26;96122.47;10539180;28;20614;-64
2023/05/22 18:18:33;;;;;;;8.45;5.05;;;;;;;21.01;59.63;96125.84;10539231;28;20660;-65
2023/05/22 18:23:34;;;;;;;16.17;9.70;;;;;;;20.98;59.05;96104.19;10539182;28;20892;-64
2023/05/22 18:28:34;;;;;;;6.90;5.15;;;;;;;20.68;62.22;96137.16;10538816;28;20272;-63
2023/05/22 18:33:34;;;;;;;9.25;3.90;;;;;;;19.96;65.50;96168.25;10537734;28;20217;-63
2023/05/22 18:38:35;;;;;;;8.45;4.20;;;;;;;19.32;68.20;96185.75;10538498;28;20182;-62
2023/05/22 18:43:35;;;;;;;6.35;3.92;;;;;;;19.16;69.12;96148.16;10538046;28;20264;-62
2023/05/22 18:48:35;;;;;;;11.82;4.25;;;;;;;19.09;70.07;96150.09;10537632;28;20238;-65
2023/05/22 18:53:36;;;;;;;5.15;3.80;;;;;;;18.29;73.50;96165.03;10537569;28;20226;-65
2023/05/22 18:58:40;;;;;;;5.60;3.90;;;;;;;18.05;75.92;96169.31;10537681;28;20190;-63
2023/05/22 19:03:40;;;;;;;7.18;4.22;;;;;;;17.75;77.30;96177.06;10536858;28;20589;-65
2023/05/22 19:08:40;;;;;;;7.28;5.82;;;;;;;17.53;80.45;96189.88;10537367;28;20245;-66
2023/05/22 19:13:41;;;;;;;6.05;5.15;;;;;;;17.46;80.80;96187.25;10536690;28;20276;-65
2023/05/22 19:18:42;;;;;;;9.85;4.32;;;;;;;16.89;83.87;96192.41;10536917;28;20183;-65
2023/05/22 19:23:42;;;;;;;9.10;4.50;;;;;;;16.46;87.11;96198.19;10536005;28;20214;-64
2023/05/22 19:28:43;;;;;;;11.68;4.20;;;;;;;16.01;93.03;96199.66;10535716;28;20692;-65
2023/05/22 19:33:43;;;;;;;7.07;4.25;;;;;;;15.44;100.00;96208.91;10535907;28;20252;-65
2023/05/22 19:38:43;;;;;;;6.75;4.88;;;;;;;15.50;100.00;96216.03;10535645;28;20603;-65
2023/05/22 19:43:44;;;;;;;5.93;4.70;;;;;;;15.46;100.00;96217.44;10535039;28;20299;-63
2023/05/22 19:48:44;;;;;;;11.48;4.72;;;;;;;15.56;100.00;96223.16;10535060;28;20713;-65
2023/05/22 19:53:45;;;;;;;9.40;4.88;;;;;;;15.36;100.00;96222.28;10535145;28;20237;-64
2023/05/22 19:58:45;;;;;;;6.93;4.75;;;;;;;14.87;100.00;96237.31;10535070;28;20190;-63
2023/05/22 20:03:45;;;;;;;10.00;5.50;;;;;;;14.55;100.00;96243.00;10534717;28;20301;-65
2023/05/22 20:08:46;;;;;;;11.63;5.60;;;;;;;14.56;100.00;96234.09;10534824;28;20747;-64
2023/05/22 20:13:46;;;;;;;11.40;5.65;;;;;;;14.21;100.00;96239.31;10534590;28;20214;-65
2023/05/22 20:18:47;;;;;;;8.65;5.40;;;;;;;14.36;100.00;96235.75;10534980;28;20205;-64
2023/05/22 20:23:47;;;;;;;9.18;5.32;;;;;;;14.35;100.00;96234.13;10534509;28;20293;-65
2023/05/22 20:28:48;;;;;;;8.02;5.70;;;;;;;14.30;100.00;96229.41;10534370;28;20218;-66
2023/05/22 20:33:48;;;;;;;11.80;6.10;;;;;;;14.34;100.00;96220.13;10534147;28;20272;-66
2023/05/22 20:38:48;;;;;;;7.63;5.28;;;;;;;14.36;100.00;96217.31;10534483;28;20194;-66
2023/05/22 20:43:49;;;;;;;6.07;5.10;;;;;;;14.34;100.00;96214.88;10534472;28;20302;-66
2023/05/22 20:48:52;;;;;;;10.45;4.68;;;;;;;14.35;100.00;96213.03;10534068;28;20718;-65
2023/05/22 20:53:53;;;;;;;9.45;5.00;;;;;;;14.23;100.00;96210.94;10534785;28;20206;-66
2023/05/22 20:58:53;;;;;;;9.80;4.57;;;;;;;14.33;100.00;96204.50;10541628;28;20178;-66
2023/05/22 21:03:55;;;;;;;7.22;4.85;;;;;;;14.19;100.00;96211.50;10541769;28;20241;-66
2023/05/22 21:08:58;;;;;;;5.65;4.57;;;;;;;14.02;100.00;96210.97;10529373;28;20225;-66
2023/05/22 21:13:58;;;;;;;8.35;5.00;;;;;;;14.05;100.00;96205.34;10519363;28;20210;-65
2023/05/22 21:18:59;;;;;;;11.75;5.28;;;;;;;13.79;100.00;96206.75;10519211;28;20200;-65
2023/05/22 21:23:59;;;;;;;9.77;5.93;;;;;;;13.91;100.00;96194.69;10519449;28;20207;-65
2023/05/22 21:29:00;;;;;;;10.05;5.85;;;;;;;13.74;100.00;96180.97;10518985;28;20688;-66
2023/05/22 21:34:01;;;;;;;9.88;5.43;;;;;;;13.95;100.00;96181.13;10516878;28;20301;-66
2023/05/22 21:39:02;;;;;;;14.45;6.00;;;;;;;14.14;100.00;96177.84;10517587;28;20544;-64
2023/05/22 21:44:02;;;;;;;13.52;5.72;;;;;;;14.32;100.00;96168.63;10515819;28;20592;-65
2023/05/22 21:49:04;;;;;;;8.98;5.40;;;;;;;14.58;100.00;96160.88;10517574;28;20213;-64
2023/05/22 21:54:05;;;;;;;8.35;4.57;;;;;;;15.14;100.00;96145.91;10518382;28;20242;-64
2023/05/22 21:59:05;;;;;;;7.93;4.68;;;;;;;15.36;96.98;96137.81;10498093;28;20636;-66
2023/05/22 22:04:05;;;;;;;8.80;4.50;;;;;;;15.29;96.68;96138.63;10498107;28;20795;-65
2023/05/22 22:09:06;;;;;;;10.23;5.18;;;;;;;14.68;100.00;96146.56;10497487;28;20802;-66
2023/05/22 22:14:06;;;;;;;11.65;5.43;;;;;;;14.83;100.00;96149.06;10497806;28;20264;-65
2023/05/22 22:19:06;;;;;;;8.48;4.90;;;;;;;15.09;97.85;96153.59;10497775;28;20193;-65
2023/05/22 22:24:07;;;;;;;10.32;5.32;;;;;;;15.20;96.27;96165.41;10497097;28;20231;-65
2023/05/22 22:29:07;;;;;;;7.63;4.85;;;;;;;15.23;97.74;96163.16;10497281;28;20273;-66
2023/05/22 22:34:08;;;;;;;9.48;4.70;;;;;;;15.08;97.02;96155.41;10496546;28;20211;-64
2023/05/22 22:39:08;;;;;;;10.80;4.70;;;;;;;15.11;97.08;96151.56;10496999;28;20240;-66
2023/05/22 22:44:08;;;;;;;7.70;4.85;;;;;;;14.85;100.00;96163.66;10496364;28;20218;-66
2023/05/22 22:49:09;;;;;;;10.57;5.25;;;;;;;14.80;100.00;96166.88;10496108;28;20215;-63
2023/05/22 22:54:09;;;;;;;10.43;4.70;;;;;;;14.67;100.00;96168.66;10496130;28;20261;-66
2023/05/22 22:59:09;;;;;;;9.75;4.68;;;;;;;14.66;100.00;96185.50;10495627;28;20199;-64
2023/05/22 23:04:11;;;;;;;7.93;4.75;;;;;;;14.73;100.00;96197.69;10495666;28;20270;-66
2023/05/22 23:09:11;;;;;;;5.22;4.72;;;;;;;14.51;100.00;96199.56;10495337;28;20219;-64
2023/05/22 23:14:12;;;;;;;7.20;5.10;;;;;;;14.33;100.00;96193.97;10495392;28;20613;-66
2023/05/22 23:19:12;;;;;;;8.75;4.88;;;;;;;14.24;100.00;96188.88;10494581;28;20626;-64